Imperial, Nebraska
Current Conditions -  °F | °C
As of 7:53 PM on Saturday 24 Jan 2015 (Local Time) from KIML Reporting Station
Overcast Overcast  
Wind Chill: 34°   Ceiling: 9500
Heat Index: 43°   Visibility: 10mi
Dew Point: 34°   Wind: 23mph
Humidity: 71%   Direction: 300°WNW
Pressure: 29.92"   Gusts: 37mph
Location:  40.52°N, 101.64°W
Report Text: KIML 250253Z AUTO 30020G32KT 10SM OVC095 06/01 A2992 RMK AO2 PK WND 30048/0212 RAB16E23 SLP148 P0000 60000 T00610011 51013
Loading
Personal Weather Stations






























Interactive Weather Map New forecast layout! Learn more

10-Day Weather Forecast

Advertisements
Track Severe Weather on mobile